createdAt,value
2022-11-20T00:01:18.841Z,6.47
2022-11-20T00:03:46.953Z,7.07
2022-11-20T00:06:17.618Z,6.70
2022-11-20T00:08:45.911Z,6.20
2022-11-20T00:11:16.635Z,7.25
2022-11-20T00:13:49.433Z,6.18
2022-11-20T00:16:20.055Z,6.55
2022-11-20T00:18:47.696Z,5.80
2022-11-20T00:21:20.355Z,5.50
2022-11-20T00:23:51.292Z,5.30
2022-11-20T00:26:21.725Z,6.50
2022-11-20T00:28:54.581Z,5.68
2022-11-20T00:31:22.578Z,6.13
2022-11-20T00:33:50.624Z,5.75
2022-11-20T00:36:27.018Z,6.00
2022-11-20T00:38:56.700Z,5.75
2022-11-20T00:41:25.097Z,6.10
2022-11-20T00:43:55.205Z,5.80
2022-11-20T00:46:25.565Z,5.82
2022-11-20T00:48:53.082Z,5.82
2022-11-20T00:51:23.346Z,5.43
2022-11-20T00:53:51.121Z,6.18
2022-11-20T00:56:20.059Z,4.88
2022-11-20T00:58:49.559Z,4.95
2022-11-20T01:01:25.415Z,5.38
2022-11-20T01:03:55.455Z,5.40
2022-11-20T01:06:29.503Z,5.30
2022-11-20T01:09:00.498Z,5.28
2022-11-20T01:11:31.186Z,5.23
2022-11-20T01:14:00.130Z,5.32
2022-11-20T01:16:30.680Z,5.05
2022-11-20T01:19:02.642Z,5.18
2022-11-20T01:23:59.611Z,5.05
2022-11-20T01:26:32.688Z,5.13
2022-11-20T01:29:01.139Z,6.05
2022-11-20T01:31:34.029Z,5.57
2022-11-20T01:34:04.666Z,5.95
2022-11-20T01:36:33.798Z,6.20
2022-11-20T01:39:04.199Z,5.28
2022-11-20T01:41:52.325Z,5.10
2022-11-20T01:44:23.471Z,4.90
2022-11-20T01:46:58.604Z,5.20
2022-11-20T01:49:37.968Z,4.97
2022-11-20T01:52:23.833Z,5.13
2022-11-20T01:55:00.253Z,4.72
2022-11-20T01:57:30.752Z,4.82
2022-11-20T02:00:02.726Z,4.80
2022-11-20T02:02:46.736Z,4.35
2022-11-20T02:05:29.616Z,4.82
2022-11-20T02:07:59.980Z,4.38
2022-11-20T02:10:29.185Z,4.55
2022-11-20T02:13:16.197Z,4.75
2022-11-20T02:15:44.221Z,4.35
2022-11-20T02:18:14.833Z,4.20
2022-11-20T02:20:45.570Z,4.00
2022-11-20T02:23:14.181Z,5.05
2022-11-20T02:25:43.908Z,4.50
2022-11-20T02:28:11.412Z,4.35
2022-11-20T02:30:38.768Z,4.93
2022-11-20T02:33:06.096Z,4.40
2022-11-20T02:35:33.451Z,4.60
2022-11-20T02:38:03.234Z,4.47
2022-11-20T02:40:30.618Z,4.68
2022-11-20T02:42:58.530Z,4.43
2022-11-20T02:45:26.374Z,4.95
2022-11-20T02:47:54.029Z,4.68
2022-11-20T02:50:21.825Z,4.60
2022-11-20T02:52:49.266Z,4.75
2022-11-20T02:55:16.698Z,4.63
2022-11-20T02:57:44.213Z,4.70
2022-11-20T03:00:12.337Z,4.45
2022-11-20T03:02:39.695Z,4.72
2022-11-20T03:05:08.437Z,4.85
2022-11-20T03:07:35.899Z,4.50
2022-11-20T03:10:04.432Z,4.70
2022-11-20T03:12:31.809Z,4.50
2022-11-20T03:14:59.239Z,4.45
2022-11-20T03:17:26.780Z,4.80
2022-11-20T03:19:54.128Z,4.22
2022-11-20T03:22:21.475Z,4.55
2022-11-20T03:24:48.800Z,4.18
2022-11-20T03:27:16.166Z,4.10
2022-11-20T03:29:43.530Z,4.13
2022-11-20T03:32:11.100Z,4.43
2022-11-20T03:34:38.529Z,3.97
2022-11-20T03:37:05.949Z,4.10
2022-11-20T03:39:33.634Z,3.63
2022-11-20T03:42:01.112Z,3.28
2022-11-20T03:44:29.536Z,3.42
2022-11-20T03:46:56.910Z,3.22
2022-11-20T03:49:24.412Z,3.38
2022-11-20T03:51:51.835Z,3.28
2022-11-20T03:54:19.190Z,2.97
2022-11-20T03:56:46.528Z,3.13
2022-11-20T03:59:13.843Z,3.28
2022-11-20T04:01:44.291Z,3.65
2022-11-20T04:04:15.187Z,4.00
2022-11-20T04:06:42.576Z,3.35
2022-11-20T04:09:10.031Z,3.40
2022-11-20T04:11:40.583Z,3.50
2022-11-20T04:14:14.346Z,3.35
2022-11-20T04:16:42.393Z,3.30
2022-11-20T04:19:15.923Z,3.47
2022-11-20T04:21:47.171Z,3.15
2022-11-20T04:24:14.535Z,3.42
2022-11-20T04:26:42.103Z,3.17
2022-11-20T04:29:12.785Z,3.70
2022-11-20T04:31:40.301Z,3.05
2022-11-20T04:34:08.426Z,3.65
2022-11-20T04:36:36.169Z,3.40
2022-11-20T04:39:07.125Z,3.58
2022-11-20T04:41:36.907Z,4.20
2022-11-20T04:44:06.604Z,3.45
2022-11-20T04:46:45.023Z,3.63
2022-11-20T04:49:15.342Z,3.33
2022-11-20T04:51:42.754Z,3.50
2022-11-20T04:54:12.333Z,3.60
2022-11-20T04:56:39.729Z,3.50
2022-11-20T04:59:07.200Z,3.50
2022-11-20T05:01:35.414Z,3.72
2022-11-20T05:04:02.799Z,3.35
2022-11-20T05:06:30.196Z,3.30
2022-11-20T05:08:57.596Z,3.80
2022-11-20T05:11:25.539Z,3.30
2022-11-20T05:13:53.105Z,3.75
2022-11-20T05:16:23.394Z,3.20
2022-11-20T05:18:55.253Z,3.75
2022-11-20T05:21:23.200Z,3.88
2022-11-20T05:23:50.643Z,3.78
2022-11-20T05:26:23.549Z,3.50
2022-11-20T05:28:52.309Z,3.33
2022-11-20T05:31:27.107Z,3.40
2022-11-20T05:33:57.403Z,3.67
2022-11-20T05:36:25.131Z,3.80
2022-11-20T05:38:56.645Z,3.58
2022-11-20T05:41:29.375Z,3.25
2022-11-20T05:43:57.232Z,3.45
2022-11-20T05:46:28.146Z,3.30
2022-11-20T05:48:57.810Z,3.25
2022-11-20T05:51:26.393Z,3.10
2022-11-20T05:53:53.973Z,3.10
2022-11-20T05:56:23.028Z,2.80
2022-11-20T05:58:50.765Z,3.25
2022-11-20T06:01:24.258Z,2.58
2022-11-20T06:03:53.239Z,2.60
2022-11-20T06:06:21.271Z,2.70
2022-11-20T06:08:49.237Z,2.70
2022-11-20T06:11:17.525Z,2.53
2022-11-20T06:13:45.692Z,2.97
2022-11-20T06:16:16.294Z,3.15
2022-11-20T06:18:43.713Z,3.22
2022-11-20T06:21:20.994Z,3.00
2022-11-20T06:23:49.742Z,3.20
2022-11-20T06:26:22.253Z,3.38
2022-11-20T06:28:51.560Z,3.22
2022-11-20T06:31:21.440Z,3.58
2022-11-20T06:33:49.866Z,3.35
2022-11-20T06:36:19.620Z,3.55
2022-11-20T06:38:49.293Z,3.58
2022-11-20T06:41:19.631Z,3.78
2022-11-20T06:43:47.657Z,3.97
2022-11-20T06:46:18.592Z,3.95
2022-11-20T06:48:47.219Z,3.72
2022-11-20T06:51:14.731Z,3.47
2022-11-20T06:53:42.198Z,3.40
2022-11-20T06:56:09.797Z,3.38
2022-11-20T06:58:37.916Z,3.35
2022-11-20T07:01:08.328Z,2.90
2022-11-20T07:03:36.338Z,2.85
2022-11-20T07:06:04.692Z,3.08
2022-11-20T07:08:32.544Z,3.03
2022-11-20T07:11:01.728Z,2.97
2022-11-20T07:13:30.214Z,2.97
2022-11-20T07:16:02.885Z,3.58
2022-11-20T07:18:30.599Z,3.35
2022-11-20T07:21:01.714Z,3.20
2022-11-20T07:23:29.261Z,3.60
2022-11-20T07:25:56.703Z,3.08
2022-11-20T07:28:24.170Z,3.30
2022-11-20T07:30:53.495Z,2.85
2022-11-20T07:33:21.142Z,2.90
2022-11-20T07:35:48.521Z,3.20
2022-11-20T07:38:16.034Z,2.75
2022-11-20T07:40:43.421Z,2.90
2022-11-20T07:43:10.854Z,2.72
2022-11-20T07:45:38.286Z,2.55
2022-11-20T07:48:05.854Z,2.35
2022-11-20T07:50:33.424Z,2.85
2022-11-20T07:53:05.545Z,2.60
2022-11-20T07:55:33.373Z,2.47
2022-11-20T07:58:01.329Z,2.58
2022-11-20T08:00:29.032Z,2.90
2022-11-20T08:02:56.453Z,2.70
2022-11-20T08:05:24.727Z,3.45
2022-11-20T08:07:52.523Z,2.83
2022-11-20T08:10:20.041Z,2.85
2022-11-20T08:13:07.913Z,2.80
2022-11-20T08:15:35.944Z,2.58
2022-11-20T08:18:30.533Z,3.22
2022-11-20T08:21:17.451Z,2.53
2022-11-20T08:23:44.821Z,2.55
2022-11-20T08:26:12.238Z,2.85
2022-11-20T08:28:39.637Z,2.40
2022-11-20T08:31:07.048Z,2.65
2022-11-20T08:33:34.425Z,2.28
2022-11-20T08:36:03.026Z,2.33
2022-11-20T08:38:31.570Z,2.40
2022-11-20T08:41:18.864Z,2.15
2022-11-20T08:43:46.531Z,2.10
2022-11-20T08:46:14.434Z,2.58
2022-11-20T08:48:42.357Z,2.65
2022-11-20T08:51:10.451Z,2.50
2022-11-20T08:53:38.957Z,2.30
2022-11-20T08:56:06.821Z,2.50
2022-11-20T08:58:55.086Z,2.60
2022-11-20T09:01:23.207Z,2.50
2022-11-20T09:03:51.083Z,2.20
2022-11-20T09:06:18.768Z,2.70
2022-11-20T09:08:46.183Z,2.60
2022-11-20T09:11:13.557Z,2.35
2022-11-20T09:13:41.086Z,2.60
2022-11-20T09:16:09.785Z,2.50
2022-11-20T09:18:38.348Z,2.88
2022-11-20T09:21:14.745Z,2.70
2022-11-20T09:23:42.142Z,2.10
2022-11-20T09:26:14.782Z,2.63
2022-11-20T09:28:42.383Z,2.28
2022-11-20T09:31:20.265Z,2.67
2022-11-20T09:33:48.558Z,2.58
2022-11-20T09:36:17.013Z,2.38
2022-11-20T09:38:44.446Z,2.05
2022-11-20T09:41:37.628Z,2.33
2022-11-20T09:44:21.820Z,1.60
2022-11-20T09:46:54.241Z,1.80
2022-11-20T09:49:43.292Z,1.50
2022-11-20T09:52:38.601Z,1.50
2022-11-20T09:55:11.431Z,1.60
2022-11-20T09:57:43.603Z,2.00
2022-11-20T10:00:13.540Z,2.30
2022-11-20T10:03:00.838Z,2.10
2022-11-20T10:05:46.493Z,1.90
2022-11-20T10:08:23.728Z,1.90
2022-11-20T10:10:59.358Z,2.10
2022-11-20T10:13:48.578Z,1.80
2022-11-20T10:16:53.594Z,2.30
2022-11-20T10:19:45.495Z,2.40
2022-11-20T10:22:49.893Z,2.50
2022-11-20T10:25:21.368Z,2.55
2022-11-20T10:28:12.316Z,2.42
2022-11-20T10:30:44.294Z,2.13
2022-11-20T10:36:02.977Z,2.75
2022-11-20T10:38:50.596Z,2.88
2022-11-20T10:41:35.980Z,3.03
2022-11-20T10:44:47.302Z,3.88
2022-11-20T10:47:19.557Z,3.78
2022-11-20T10:49:52.084Z,3.70
2022-11-20T10:52:41.009Z,3.45
2022-11-20T10:55:27.021Z,3.60
2022-11-20T10:58:28.412Z,3.75
2022-11-20T11:01:24.455Z,3.50
2022-11-20T11:03:53.415Z,3.78
2022-11-20T11:06:38.681Z,3.80
2022-11-20T11:09:25.362Z,3.20
2022-11-20T11:11:52.720Z,2.90
2022-11-20T11:14:20.159Z,3.40
2022-11-20T11:16:57.029Z,3.65
2022-11-20T11:19:25.633Z,3.22
2022-11-20T11:21:58.088Z,3.50
2022-11-20T11:24:43.962Z,3.40
2022-11-20T11:27:18.856Z,3.65
2022-11-20T11:29:47.619Z,3.63
2022-11-20T11:32:20.652Z,4.25
2022-11-20T11:35:07.380Z,4.18
2022-11-20T11:37:38.341Z,3.40
2022-11-20T11:40:24.252Z,4.35
2022-11-20T11:42:57.774Z,4.47
2022-11-20T11:45:25.528Z,4.00
2022-11-20T11:47:55.091Z,4.40
2022-11-20T11:50:28.287Z,5.00
2022-11-20T11:53:17.649Z,5.30
2022-11-20T11:55:48.171Z,5.10
2022-11-20T11:58:52.123Z,5.78
2022-11-20T12:01:25.597Z,5.82
2022-11-20T12:04:36.370Z,7.03
2022-11-20T12:07:49.610Z,7.40
2022-11-20T12:10:21.270Z,8.13
2022-11-20T12:13:03.015Z,8.30
2022-11-20T12:15:32.629Z,8.50
2022-11-20T12:18:00.696Z,8.90
2022-11-20T12:20:40.495Z,9.70
2022-11-20T12:23:33.870Z,9.65
2022-11-20T12:26:15.111Z,9.48
2022-11-20T12:28:58.126Z,10.13
2022-11-20T12:31:32.765Z,10.80
2022-11-20T12:34:12.370Z,11.02
2022-11-20T12:36:46.320Z,11.30
2022-11-20T12:39:34.813Z,11.88
2022-11-20T12:42:33.182Z,11.07
2022-11-20T12:45:11.610Z,10.68
2022-11-20T12:48:33.309Z,10.63
2022-11-20T12:51:32.092Z,10.20
2022-11-20T12:54:27.021Z,9.23
2022-11-20T12:57:44.036Z,9.80
2022-11-20T13:00:16.235Z,10.82
2022-11-20T13:03:12.357Z,10.70
2022-11-20T13:06:12.403Z,11.45
2022-11-20T13:08:42.910Z,10.57
2022-11-20T13:11:18.166Z,9.85
2022-11-20T13:14:06.918Z,9.98
2022-11-20T13:16:49.095Z,12.02
2022-11-20T13:21:51.530Z,11.95
2022-11-20T13:24:25.876Z,12.85
2022-11-20T13:27:08.585Z,13.82
2022-11-20T13:29:39.635Z,12.25
2022-11-20T13:32:16.120Z,12.25
2022-11-20T13:35:01.578Z,12.63
2022-11-20T13:37:32.036Z,12.93
2022-11-20T13:40:08.655Z,13.88
2022-11-20T13:42:45.125Z,12.50
2022-11-20T13:45:31.342Z,12.68
2022-11-20T13:48:05.031Z,12.52
2022-11-20T13:50:49.744Z,12.43
2022-11-20T13:53:48.580Z,13.02
2022-11-20T13:57:18.009Z,13.25
2022-11-20T13:59:59.148Z,12.43
2022-11-20T14:02:32.604Z,12.50
2022-11-20T14:05:01.837Z,12.00
2022-11-20T14:07:42.458Z,12.43
2022-11-20T14:10:40.616Z,12.25
2022-11-20T14:13:19.162Z,12.00
2022-11-20T14:15:46.838Z,11.75
2022-11-20T14:18:22.795Z,12.50
2022-11-20T14:20:50.712Z,12.90
2022-11-20T14:23:29.985Z,14.18
2022-11-20T14:25:58.136Z,12.18
2022-11-20T14:28:31.068Z,12.45
2022-11-20T14:30:58.848Z,13.05
2022-11-20T14:33:29.858Z,12.68
2022-11-20T14:35:59.310Z,12.77
2022-11-20T14:38:29.514Z,13.18
2022-11-20T14:41:08.367Z,12.30
2022-11-20T14:43:38.600Z,12.07
2022-11-20T14:46:11.086Z,12.75
2022-11-20T14:48:43.044Z,12.75
2022-11-20T14:53:52.029Z,13.38
2022-11-20T14:56:25.895Z,12.13
2022-11-20T14:58:57.965Z,12.05
2022-11-20T15:01:34.273Z,13.40
2022-11-20T15:04:07.768Z,13.75
2022-11-20T15:06:35.263Z,13.25
2022-11-20T15:09:14.541Z,13.25
2022-11-20T15:11:56.841Z,12.98
2022-11-20T15:14:26.343Z,13.45
2022-11-20T15:16:55.154Z,14.02
2022-11-20T15:19:27.721Z,12.98
2022-11-20T15:21:58.149Z,12.80
2022-11-20T15:24:26.004Z,13.77
2022-11-20T15:26:53.597Z,14.00
2022-11-20T15:29:24.729Z,14.40
2022-11-20T15:31:53.688Z,13.57
2022-11-20T15:34:21.495Z,13.00
2022-11-20T15:36:49.579Z,13.95
2022-11-20T15:39:17.003Z,13.63
2022-11-20T15:41:44.402Z,13.82
2022-11-20T15:44:11.798Z,13.98
2022-11-20T15:46:43.368Z,14.80
2022-11-20T15:49:14.585Z,14.98
2022-11-20T15:51:49.724Z,14.23
2022-11-20T15:54:21.282Z,15.10
2022-11-20T15:56:50.332Z,14.05
2022-11-20T15:59:17.761Z,14.13
2022-11-20T16:01:45.386Z,13.23
2022-11-20T16:04:15.508Z,14.40
2022-11-20T16:06:43.087Z,14.18
2022-11-20T16:09:10.683Z,14.20
2022-11-20T16:11:38.445Z,14.85
2022-11-20T16:14:25.557Z,14.48
2022-11-20T16:16:53.399Z,14.65
2022-11-20T16:19:20.954Z,15.43
2022-11-20T16:22:06.829Z,15.15
2022-11-20T16:24:34.612Z,14.43
2022-11-20T16:27:01.910Z,15.15
2022-11-20T16:29:31.963Z,15.15
2022-11-20T16:31:59.293Z,14.40
2022-11-20T16:34:27.147Z,16.00
2022-11-20T16:36:54.681Z,16.05
2022-11-20T16:39:23.851Z,16.58
2022-11-20T16:41:51.538Z,15.65
2022-11-20T16:44:18.874Z,14.60
2022-11-20T16:46:46.285Z,15.35
2022-11-20T16:49:14.939Z,16.08
2022-11-20T16:51:42.903Z,17.55
2022-11-20T16:54:11.770Z,16.45
2022-11-20T16:56:41.463Z,16.03
2022-11-20T16:59:08.982Z,15.52
2022-11-20T17:01:38.712Z,16.02
2022-11-20T17:04:07.235Z,17.63
2022-11-20T17:06:36.883Z,17.25
2022-11-20T17:09:05.051Z,19.00
2022-11-20T17:11:33.655Z,19.27
2022-11-20T17:14:02.418Z,19.17
2022-11-20T17:16:30.936Z,19.08
2022-11-20T17:19:02.861Z,20.00
2022-11-20T17:21:38.172Z,19.52
2022-11-20T17:24:08.094Z,20.48
2022-11-20T17:26:36.486Z,20.05
2022-11-20T17:29:06.433Z,19.42
2022-11-20T17:31:35.221Z,20.40
2022-11-20T17:34:02.773Z,20.13
2022-11-20T17:36:31.199Z,19.77
2022-11-20T17:39:00.263Z,23.85
2022-11-20T17:41:29.428Z,21.52
2022-11-20T17:43:59.601Z,20.73
2022-11-20T17:46:30.004Z,20.58
2022-11-20T17:48:57.329Z,21.80
2022-11-20T17:51:30.220Z,21.23
2022-11-20T17:54:01.249Z,20.17
2022-11-20T17:56:54.260Z,19.95
2022-11-20T17:59:22.064Z,20.50
2022-11-20T18:01:49.635Z,21.63
2022-11-20T18:04:17.392Z,22.13
2022-11-20T18:06:45.202Z,20.10
2022-11-20T18:09:12.998Z,21.85
2022-11-20T18:11:43.114Z,20.67
2022-11-20T18:14:36.368Z,21.30
2022-11-20T18:17:06.823Z,20.48
2022-11-20T18:19:41.161Z,22.40
2022-11-20T18:22:17.693Z,21.60
2022-11-20T18:24:46.263Z,22.90
2022-11-20T18:27:17.558Z,21.23
2022-11-20T18:29:46.934Z,21.23
2022-11-20T18:32:14.937Z,21.33
2022-11-20T18:34:42.343Z,20.17
2022-11-20T18:37:09.949Z,21.50
2022-11-20T18:39:37.301Z,20.90
2022-11-20T18:42:23.272Z,20.17
2022-11-20T18:44:56.522Z,20.40
2022-11-20T18:47:30.452Z,19.42
2022-11-20T18:50:00.923Z,20.17
2022-11-20T18:52:30.546Z,19.58
2022-11-20T18:54:58.425Z,18.95
2022-11-20T18:57:27.734Z,18.80
2022-11-20T18:59:56.417Z,18.27
2022-11-20T19:02:23.808Z,19.52
2022-11-20T19:04:51.302Z,18.95
2022-11-20T19:07:18.787Z,18.85
2022-11-20T19:09:49.730Z,18.77
2022-11-20T19:12:17.695Z,18.80
2022-11-20T19:14:45.433Z,19.17
2022-11-20T19:17:12.872Z,20.48
2022-11-20T19:19:40.656Z,20.70
2022-11-20T19:22:08.289Z,23.42
2022-11-20T19:24:35.890Z,21.63
2022-11-20T19:27:03.484Z,20.67
2022-11-20T19:29:31.143Z,19.20
2022-11-20T19:31:59.132Z,18.38
2022-11-20T19:34:26.483Z,19.75
2022-11-20T19:36:54.058Z,19.13
2022-11-20T19:39:21.675Z,19.25
2022-11-20T19:41:49.221Z,19.77
2022-11-20T19:44:19.493Z,20.85
2022-11-20T19:46:47.045Z,20.38
2022-11-20T19:49:15.076Z,19.77
2022-11-20T19:51:49.226Z,19.90
2022-11-20T19:54:17.668Z,19.70
2022-11-20T19:56:46.676Z,21.30
2022-11-20T19:59:14.519Z,20.92
2022-11-20T20:01:42.815Z,20.30
2022-11-20T20:04:10.460Z,19.48
2022-11-20T20:06:41.712Z,19.73
2022-11-20T20:09:12.093Z,20.42
2022-11-20T20:11:40.702Z,20.70
2022-11-20T20:14:13.631Z,19.42
2022-11-20T20:16:42.111Z,18.60
2022-11-20T20:19:13.528Z,20.05
2022-11-20T20:21:43.970Z,19.90
2022-11-20T20:24:12.246Z,17.77
2022-11-20T20:26:42.810Z,16.90
2022-11-20T20:29:10.194Z,16.52
2022-11-20T20:31:37.573Z,18.30
2022-11-20T20:34:06.047Z,17.70
2022-11-20T20:36:33.724Z,17.55
2022-11-20T20:39:02.749Z,17.38
2022-11-20T20:41:31.965Z,16.65
2022-11-20T20:44:19.881Z,17.05
2022-11-20T20:46:47.416Z,16.23
2022-11-20T20:49:14.960Z,17.73
2022-11-20T20:51:42.360Z,19.15
2022-11-20T20:54:09.785Z,19.27
2022-11-20T20:56:37.078Z,21.23
2022-11-20T20:59:04.442Z,20.52
2022-11-20T21:01:31.992Z,20.65
2022-11-20T21:04:00.095Z,22.40
2022-11-20T21:06:27.578Z,21.98
2022-11-20T21:08:57.425Z,22.40
2022-11-20T21:11:25.296Z,21.98
2022-11-20T21:13:52.890Z,21.85
2022-11-20T21:16:22.482Z,22.48
2022-11-20T21:18:49.931Z,21.17
2022-11-20T21:21:36.910Z,20.50
2022-11-20T21:24:04.594Z,20.42
2022-11-20T21:26:32.020Z,20.23
2022-11-20T21:28:59.478Z,20.88
2022-11-20T21:31:28.477Z,21.27
2022-11-20T21:33:57.246Z,20.25
2022-11-20T21:36:27.193Z,21.58
2022-11-20T21:38:55.856Z,20.02
2022-11-20T21:41:24.923Z,20.30
2022-11-20T21:44:24.015Z,20.73
2022-11-20T21:46:44.253Z,19.45
2022-11-20T21:49:15.353Z,20.10
2022-11-20T21:51:42.726Z,20.77
2022-11-20T21:54:11.655Z,19.98
2022-11-20T21:56:40.325Z,19.60
2022-11-20T21:59:12.916Z,20.25
2022-11-20T22:01:41.589Z,19.05
2022-11-20T22:04:13.611Z,19.30
2022-11-20T22:09:08.126Z,18.92
2022-11-20T22:11:35.574Z,18.70
2022-11-20T22:14:21.570Z,18.58
2022-11-20T22:16:50.824Z,19.45
2022-11-20T22:19:20.553Z,19.05
2022-11-20T22:21:48.435Z,20.52
2022-11-20T22:24:17.953Z,18.63
2022-11-20T22:26:46.982Z,17.92
2022-11-20T22:29:16.226Z,19.80
2022-11-20T22:31:43.816Z,18.40
2022-11-20T22:34:13.049Z,19.88
2022-11-20T22:36:41.218Z,18.80
2022-11-20T22:39:08.717Z,19.02
2022-11-20T22:41:36.504Z,18.52
2022-11-20T22:44:06.956Z,19.38
2022-11-20T22:46:36.537Z,19.23
2022-11-20T22:49:11.060Z,18.42
2022-11-20T22:51:40.736Z,19.73
2022-11-20T22:54:11.437Z,21.08
2022-11-20T22:56:39.346Z,20.45
2022-11-20T22:59:06.731Z,19.17
2022-11-20T23:01:37.851Z,19.92
2022-11-20T23:04:08.241Z,19.80
2022-11-20T23:06:35.792Z,19.73
2022-11-20T23:09:08.009Z,20.38
2022-11-20T23:11:36.266Z,20.15
2022-11-20T23:14:12.343Z,19.83
2022-11-20T23:16:39.952Z,21.40
2022-11-20T23:19:10.586Z,20.27
2022-11-20T23:21:39.661Z,19.85
2022-11-20T23:24:08.705Z,19.35
2022-11-20T23:26:39.128Z,20.40
2022-11-20T23:29:07.182Z,19.70
2022-11-20T23:31:35.664Z,20.20
2022-11-20T23:34:03.800Z,19.17
2022-11-20T23:36:31.401Z,19.38
2022-11-20T23:38:59.704Z,19.92
2022-11-20T23:41:27.241Z,21.15
2022-11-20T23:43:54.801Z,20.00
2022-11-20T23:46:22.337Z,19.75
2022-11-20T23:48:49.768Z,20.02
2022-11-20T23:51:18.037Z,19.70
2022-11-20T23:53:45.796Z,18.85
2022-11-20T23:56:14.718Z,19.40
2022-11-20T23:58:42.964Z,20.02
